createdAt,value
2017-08-25T00:00:38.366Z,73.70
2017-08-25T00:03:05.968Z,73.70
2017-08-25T00:05:34.385Z,73.80
2017-08-25T00:08:02.073Z,73.40
2017-08-25T00:10:29.732Z,73.30
2017-08-25T00:12:57.337Z,73.40
2017-08-25T00:15:24.964Z,74.10
2017-08-25T00:17:52.539Z,75.00
2017-08-25T00:20:20.121Z,76.40
2017-08-25T00:22:47.729Z,77.30
2017-08-25T00:25:15.304Z,77.90
2017-08-25T00:27:42.908Z,78.30
2017-08-25T00:30:10.510Z,78.60
2017-08-25T00:32:38.110Z,79.20
2017-08-25T00:35:05.772Z,79.80
2017-08-25T00:37:33.389Z,80.00
2017-08-25T00:40:00.966Z,80.30
2017-08-25T00:42:29.470Z,80.50
2017-08-25T00:44:57.146Z,80.90
2017-08-25T00:47:25.727Z,81.40
2017-08-25T00:49:53.352Z,81.90
2017-08-25T00:52:21.764Z,82.30
2017-08-25T00:54:50.254Z,82.70
2017-08-25T00:57:18.803Z,82.80
2017-08-25T00:59:46.439Z,83.20
2017-08-25T01:02:14.035Z,83.50
2017-08-25T01:04:41.674Z,83.90
2017-08-25T01:07:09.281Z,84.40
2017-08-25T01:09:36.901Z,84.50
2017-08-25T01:12:04.486Z,84.80
2017-08-25T01:14:32.147Z,84.60
2017-08-25T01:16:59.745Z,84.30
2017-08-25T01:19:27.390Z,84.40
2017-08-25T01:21:55.011Z,84.20
2017-08-25T01:24:22.623Z,84.30
2017-08-25T01:26:50.261Z,84.30
2017-08-25T01:29:18.110Z,84.40
2017-08-25T01:31:45.709Z,84.40
2017-08-25T01:34:13.329Z,84.70
2017-08-25T01:36:40.983Z,84.60
2017-08-25T01:39:08.632Z,84.80
2017-08-25T01:41:36.251Z,84.80
2017-08-25T01:44:04.023Z,85.00
2017-08-25T01:46:31.615Z,85.20
2017-08-25T01:48:59.222Z,86.00
2017-08-25T01:51:26.832Z,85.20
2017-08-25T01:53:54.493Z,85.10
2017-08-25T01:56:22.089Z,84.90
2017-08-25T01:58:49.746Z,84.90
2017-08-25T02:01:17.361Z,84.50
2017-08-25T02:03:44.978Z,85.00
2017-08-25T02:06:12.631Z,85.00
2017-08-25T02:08:40.239Z,84.90
2017-08-25T02:11:07.858Z,84.90
2017-08-25T02:13:35.501Z,84.40
2017-08-25T02:16:03.094Z,84.30
2017-08-25T02:18:30.715Z,84.20
2017-08-25T02:20:58.341Z,83.80
2017-08-25T02:23:26.063Z,83.80
2017-08-25T02:25:53.753Z,84.00
2017-08-25T02:28:21.400Z,84.00
2017-08-25T02:30:49.025Z,84.10
2017-08-25T02:33:16.610Z,84.30
2017-08-25T02:35:44.237Z,84.30
2017-08-25T02:38:11.826Z,84.50
2017-08-25T02:40:39.395Z,84.20
2017-08-25T02:43:07.018Z,83.90
2017-08-25T02:45:34.580Z,84.00
2017-08-25T02:48:02.148Z,84.00
2017-08-25T02:50:29.752Z,84.00
2017-08-25T02:52:57.350Z,83.80
2017-08-25T02:55:24.984Z,83.80
2017-08-25T02:57:53.523Z,83.50
2017-08-25T03:00:21.118Z,83.20
2017-08-25T03:02:48.749Z,83.10
2017-08-25T03:05:16.429Z,83.20
2017-08-25T03:07:44.024Z,82.80
2017-08-25T03:10:11.640Z,82.90
2017-08-25T03:12:39.233Z,82.90
2017-08-25T03:15:06.784Z,83.00
2017-08-25T03:17:34.389Z,83.00
2017-08-25T03:20:02.031Z,83.00
2017-08-25T03:22:29.667Z,83.00
2017-08-25T03:24:57.288Z,82.80
2017-08-25T03:27:24.909Z,83.00
2017-08-25T03:29:52.500Z,82.80
2017-08-25T03:32:20.120Z,82.60
2017-08-25T03:34:48.496Z,82.50
2017-08-25T03:37:16.156Z,82.40
2017-08-25T03:39:43.772Z,82.40
2017-08-25T03:42:11.397Z,82.20
2017-08-25T03:44:39.020Z,82.40
2017-08-25T03:47:06.637Z,82.30
2017-08-25T03:49:34.262Z,82.70
2017-08-25T03:52:01.912Z,82.50
2017-08-25T03:54:29.543Z,82.70
2017-08-25T03:56:57.257Z,82.60
2017-08-25T03:59:24.866Z,82.70
2017-08-25T04:01:52.426Z,82.70
2017-08-25T04:04:20.034Z,82.70
2017-08-25T04:06:47.645Z,82.90
2017-08-25T04:09:15.229Z,83.10
2017-08-25T04:11:42.933Z,83.50
2017-08-25T04:14:10.504Z,83.90
2017-08-25T04:16:38.093Z,84.20
2017-08-25T04:19:05.735Z,84.10
2017-08-25T04:21:33.338Z,84.30
2017-08-25T04:24:00.941Z,84.30
2017-08-25T04:26:28.677Z,84.50
2017-08-25T04:28:56.305Z,84.40
2017-08-25T04:31:23.929Z,84.30
2017-08-25T04:33:52.132Z,84.30
2017-08-25T04:36:19.754Z,84.10
2017-08-25T04:38:47.376Z,84.10
2017-08-25T04:41:15.904Z,84.20
2017-08-25T04:43:43.490Z,84.20
2017-08-25T04:46:11.098Z,84.10
2017-08-25T04:48:38.730Z,84.30
2017-08-25T04:51:06.352Z,84.20
2017-08-25T04:53:33.934Z,84.30
2017-08-25T04:56:01.576Z,84.20
2017-08-25T04:58:29.194Z,84.00
2017-08-25T05:00:56.800Z,84.30
2017-08-25T05:03:24.459Z,84.00
2017-08-25T05:05:52.059Z,83.70
2017-08-25T05:08:19.664Z,83.40
2017-08-25T05:10:47.343Z,83.30
2017-08-25T05:13:14.920Z,82.80
2017-08-25T05:15:42.482Z,82.70
2017-08-25T05:18:10.122Z,82.70
2017-08-25T05:20:37.705Z,82.50
2017-08-25T05:23:05.304Z,82.30
2017-08-25T05:25:32.922Z,82.00
2017-08-25T05:28:00.505Z,81.30
2017-08-25T05:30:28.074Z,81.00
2017-08-25T05:32:55.732Z,81.00
2017-08-25T05:35:23.342Z,80.50
2017-08-25T05:37:50.988Z,80.30
2017-08-25T05:40:18.674Z,79.50
2017-08-25T05:42:46.414Z,79.20
2017-08-25T05:45:14.008Z,78.70
2017-08-25T05:47:41.629Z,78.40
2017-08-25T05:50:09.294Z,77.60
2017-08-25T05:52:36.915Z,77.20
2017-08-25T05:55:04.548Z,76.80
2017-08-25T05:57:32.189Z,76.70
2017-08-25T05:59:59.766Z,78.10
2017-08-25T06:02:28.883Z,77.50
2017-08-25T06:04:56.527Z,77.40
2017-08-25T06:07:24.092Z,77.20
2017-08-25T06:09:51.703Z,76.90
2017-08-25T06:12:19.352Z,76.50
2017-08-25T06:14:46.981Z,75.70
2017-08-25T06:17:14.583Z,74.80
2017-08-25T06:19:42.175Z,73.30
2017-08-25T06:22:09.798Z,71.40
2017-08-25T06:24:37.465Z,69.00
2017-08-25T06:27:05.129Z,66.40
2017-08-25T06:29:32.829Z,66.40
2017-08-25T06:32:00.445Z,67.00
2017-08-25T06:34:28.067Z,68.00
2017-08-25T06:36:55.637Z,69.20
2017-08-25T06:39:23.578Z,69.80
2017-08-25T06:41:51.206Z,70.30
2017-08-25T06:44:18.836Z,70.90
2017-08-25T06:46:46.486Z,71.40
2017-08-25T06:49:14.127Z,72.10
2017-08-25T06:51:41.728Z,72.40
2017-08-25T06:54:09.504Z,71.90
2017-08-25T06:56:37.152Z,73.30
2017-08-25T06:59:04.776Z,73.50
2017-08-25T07:01:32.464Z,73.90
2017-08-25T07:04:00.101Z,73.90
2017-08-25T07:06:27.724Z,73.70
2017-08-25T07:08:55.377Z,73.50
2017-08-25T07:11:22.975Z,73.50
2017-08-25T07:13:50.707Z,73.60
2017-08-25T07:16:18.338Z,73.50
2017-08-25T07:18:45.944Z,73.30
2017-08-25T07:21:13.580Z,73.20
2017-08-25T07:23:41.261Z,74.20
2017-08-25T07:26:08.825Z,73.30
2017-08-25T07:28:36.477Z,72.20
2017-08-25T07:31:04.353Z,72.80
2017-08-25T07:33:31.954Z,72.20
2017-08-25T07:35:59.528Z,72.00
2017-08-25T07:38:27.164Z,71.40
2017-08-25T07:40:54.802Z,70.90
2017-08-25T07:43:22.425Z,70.10
2017-08-25T07:45:50.037Z,70.00
2017-08-25T07:48:17.653Z,68.90
2017-08-25T07:50:45.749Z,67.80
2017-08-25T07:53:13.360Z,67.70
2017-08-25T07:55:40.958Z,66.10
2017-08-25T07:58:08.569Z,66.90
2017-08-25T08:00:36.222Z,66.80
2017-08-25T08:03:03.799Z,66.10
2017-08-25T08:05:31.395Z,65.70
2017-08-25T08:07:59.076Z,63.10
2017-08-25T08:10:26.684Z,62.70
2017-08-25T08:12:54.299Z,61.10
2017-08-25T08:15:21.909Z,61.30
2017-08-25T08:17:49.503Z,60.60
2017-08-25T08:20:17.130Z,60.70
2017-08-25T08:22:44.767Z,59.00
2017-08-25T08:25:12.376Z,57.90
2017-08-25T08:27:40.692Z,58.50
2017-08-25T08:30:09.244Z,58.00
2017-08-25T08:32:36.876Z,57.80
2017-08-25T08:35:04.495Z,57.40
2017-08-25T08:37:32.098Z,57.50
2017-08-25T08:39:59.706Z,56.50
2017-08-25T08:42:27.284Z,55.40
2017-08-25T08:44:54.900Z,55.10
2017-08-25T08:47:22.521Z,55.70
2017-08-25T08:49:50.094Z,54.70
2017-08-25T08:52:17.707Z,54.00
2017-08-25T08:54:45.321Z,55.00
2017-08-25T08:57:12.952Z,54.80
2017-08-25T08:59:40.541Z,53.90
2017-08-25T09:02:08.106Z,53.40
2017-08-25T09:04:36.656Z,51.40
2017-08-25T09:07:04.339Z,52.40
2017-08-25T09:09:31.948Z,52.50
2017-08-25T09:11:59.532Z,52.50
2017-08-25T09:14:27.172Z,51.90
2017-08-25T09:16:54.802Z,51.80
2017-08-25T09:19:22.381Z,52.00
2017-08-25T09:21:50.001Z,51.80
2017-08-25T09:24:17.600Z,52.90
2017-08-25T09:26:45.255Z,52.50
2017-08-25T09:29:12.860Z,52.80
2017-08-25T09:31:40.431Z,53.30
2017-08-25T09:34:09.039Z,52.50
2017-08-25T09:36:37.500Z,52.50
2017-08-25T09:39:05.102Z,52.50
2017-08-25T09:41:32.702Z,52.60
2017-08-25T09:44:00.314Z,52.00
2017-08-25T09:46:27.959Z,52.40
2017-08-25T09:48:55.521Z,52.30
2017-08-25T09:51:23.176Z,51.70
2017-08-25T09:53:50.739Z,51.20
2017-08-25T09:56:18.337Z,51.00
2017-08-25T09:58:45.981Z,50.00
2017-08-25T10:01:13.586Z,50.60
2017-08-25T10:03:41.163Z,51.10
2017-08-25T10:06:08.751Z,51.10
2017-08-25T10:08:36.357Z,50.60
2017-08-25T10:11:03.968Z,51.00
2017-08-25T10:13:31.593Z,51.10
2017-08-25T10:15:59.162Z,51.00
2017-08-25T10:18:26.778Z,51.50
2017-08-25T10:20:54.379Z,51.60
2017-08-25T10:23:21.989Z,51.80
2017-08-25T10:25:49.607Z,51.00
2017-08-25T10:28:17.190Z,51.60
2017-08-25T10:30:44.850Z,51.50
2017-08-25T10:33:24.292Z,51.50
2017-08-25T10:36:03.623Z,50.00
2017-08-25T10:41:38.998Z,47.70
2017-08-25T10:44:18.422Z,48.20
2017-08-25T10:46:46.010Z,48.40
2017-08-25T10:49:13.603Z,47.90
2017-08-25T10:51:41.233Z,47.70
2017-08-25T10:54:08.824Z,46.90
2017-08-25T10:56:36.426Z,46.50
2017-08-25T10:59:04.036Z,46.10
2017-08-25T11:01:31.693Z,45.40
2017-08-25T11:03:59.281Z,46.40
2017-08-25T11:06:26.938Z,46.30
2017-08-25T11:08:55.204Z,46.10
2017-08-25T11:11:23.081Z,46.70
2017-08-25T11:13:50.710Z,46.00
2017-08-25T11:16:18.280Z,47.20
2017-08-25T11:18:45.865Z,46.00
2017-08-25T11:21:13.512Z,46.00
2017-08-25T11:23:41.218Z,45.80
2017-08-25T11:26:08.828Z,46.30
2017-08-25T11:28:36.498Z,45.60
2017-08-25T11:31:04.109Z,45.30
2017-08-25T11:33:31.660Z,45.00
2017-08-25T11:35:59.289Z,45.30
2017-08-25T11:38:26.874Z,45.40
2017-08-25T11:40:54.885Z,45.00
2017-08-25T11:43:22.465Z,45.40
2017-08-25T11:45:50.819Z,45.70
2017-08-25T11:48:19.195Z,45.50
2017-08-25T11:50:47.688Z,45.20
2017-08-25T11:53:15.316Z,44.40
2017-08-25T11:55:42.946Z,44.40
2017-08-25T11:58:10.920Z,44.60
2017-08-25T12:00:38.516Z,44.60
2017-08-25T12:03:06.070Z,44.20
2017-08-25T12:05:33.749Z,44.00
2017-08-25T12:08:01.332Z,43.80
2017-08-25T12:10:28.926Z,44.50
2017-08-25T12:12:56.525Z,43.80
2017-08-25T12:15:24.115Z,43.60
2017-08-25T12:17:51.735Z,44.20
2017-08-25T12:20:19.314Z,43.90
2017-08-25T12:22:46.915Z,43.60
2017-08-25T12:25:14.540Z,43.70
2017-08-25T12:27:42.136Z,42.90
2017-08-25T12:30:09.740Z,43.40
2017-08-25T12:32:37.333Z,42.80
2017-08-25T12:35:04.928Z,43.00
2017-08-25T12:37:32.558Z,43.90
2017-08-25T12:40:00.165Z,43.80
2017-08-25T12:42:27.785Z,43.70
2017-08-25T12:44:55.463Z,43.20
2017-08-25T12:47:23.364Z,42.70
2017-08-25T12:49:50.981Z,42.30
2017-08-25T12:52:18.593Z,42.80
2017-08-25T12:54:46.177Z,43.60
2017-08-25T12:57:13.823Z,44.00
2017-08-25T12:59:41.444Z,43.70
2017-08-25T13:02:09.293Z,43.90
2017-08-25T13:04:37.242Z,45.10
2017-08-25T13:07:04.828Z,44.00
2017-08-25T13:09:32.435Z,44.70
2017-08-25T13:12:00.093Z,44.50
2017-08-25T13:14:27.693Z,45.00
2017-08-25T13:16:55.276Z,44.80
2017-08-25T13:19:22.922Z,44.30
2017-08-25T13:21:50.525Z,43.50
2017-08-25T13:24:18.148Z,43.60
2017-08-25T13:26:45.780Z,44.30
2017-08-25T13:29:13.358Z,44.00
2017-08-25T13:31:40.950Z,43.50
2017-08-25T13:34:08.545Z,43.60
2017-08-25T13:36:36.154Z,44.30
2017-08-25T13:39:03.745Z,43.90
2017-08-25T13:41:31.344Z,43.80
2017-08-25T13:43:58.947Z,44.50
2017-08-25T13:46:26.608Z,43.70
2017-08-25T13:48:54.500Z,43.70
2017-08-25T13:51:22.087Z,44.20
2017-08-25T13:53:49.645Z,44.50
2017-08-25T13:56:17.266Z,44.20
2017-08-25T13:58:44.868Z,44.60
2017-08-25T14:01:12.487Z,45.10
2017-08-25T14:03:40.100Z,44.80
2017-08-25T14:06:07.681Z,44.10
2017-08-25T14:08:35.317Z,44.50
2017-08-25T14:11:02.965Z,44.00
2017-08-25T14:13:30.591Z,44.00
2017-08-25T14:15:58.181Z,43.90
2017-08-25T14:18:25.758Z,43.90
2017-08-25T14:20:53.362Z,43.90
2017-08-25T14:23:20.990Z,44.60
2017-08-25T14:25:48.540Z,44.00
2017-08-25T14:28:16.142Z,43.50
2017-08-25T14:30:43.730Z,43.30
2017-08-25T14:33:11.298Z,43.50
2017-08-25T14:35:38.884Z,43.10
2017-08-25T14:38:06.460Z,42.90
2017-08-25T14:40:34.032Z,43.00
2017-08-25T14:43:01.637Z,43.20
2017-08-25T14:48:03.207Z,42.70
2017-08-25T14:53:05.487Z,43.20
2017-08-25T14:55:33.049Z,43.50
2017-08-25T14:58:00.644Z,43.80
2017-08-25T15:00:28.272Z,43.70
2017-08-25T15:02:55.836Z,44.00
2017-08-25T15:05:23.434Z,43.60
2017-08-25T15:07:51.065Z,43.00
2017-08-25T15:10:18.703Z,42.80
2017-08-25T15:12:46.316Z,43.00
2017-08-25T15:15:13.873Z,43.40
2017-08-25T15:17:41.459Z,43.20
2017-08-25T15:20:09.638Z,43.60
2017-08-25T15:22:37.239Z,44.40
2017-08-25T15:25:04.821Z,44.20
2017-08-25T15:27:32.419Z,43.70
2017-08-25T15:30:00.002Z,43.40
2017-08-25T15:32:27.606Z,44.20
2017-08-25T15:34:55.197Z,44.10
2017-08-25T15:37:22.773Z,44.40
2017-08-25T15:39:50.406Z,44.50
2017-08-25T15:42:17.988Z,44.10
2017-08-25T15:44:45.568Z,44.30
2017-08-25T15:47:13.215Z,44.30
2017-08-25T15:49:40.789Z,44.10
2017-08-25T15:52:08.370Z,43.80
2017-08-25T15:54:35.961Z,43.90
2017-08-25T15:57:03.602Z,44.30
2017-08-25T15:59:31.181Z,44.20
2017-08-25T16:01:58.783Z,44.60
2017-08-25T16:04:26.436Z,44.90
2017-08-25T16:06:54.020Z,45.10
2017-08-25T16:09:21.607Z,45.70
2017-08-25T16:11:49.267Z,45.80
2017-08-25T16:14:16.986Z,46.20
2017-08-25T16:16:44.615Z,45.90
2017-08-25T16:19:13.169Z,46.30
2017-08-25T16:21:40.765Z,46.50
2017-08-25T16:24:08.354Z,46.80
2017-08-25T16:26:36.210Z,47.00
2017-08-25T16:29:03.809Z,46.80
2017-08-25T16:31:31.426Z,47.00
2017-08-25T16:33:59.080Z,47.00
2017-08-25T16:36:26.673Z,47.20
2017-08-25T16:38:54.258Z,47.30
2017-08-25T16:41:21.887Z,47.40
2017-08-25T16:43:49.482Z,47.50
2017-08-25T16:46:17.066Z,47.60
2017-08-25T16:48:44.664Z,47.90
2017-08-25T16:51:12.287Z,48.60
2017-08-25T16:53:39.880Z,48.10
2017-08-25T16:56:07.503Z,48.30
2017-08-25T16:58:35.192Z,48.30
2017-08-25T17:01:02.810Z,48.20
2017-08-25T17:03:30.442Z,48.60
2017-08-25T17:05:58.102Z,48.70
2017-08-25T17:08:25.742Z,49.20
2017-08-25T17:10:54.037Z,49.60
2017-08-25T17:13:21.965Z,49.70
2017-08-25T17:15:49.534Z,49.90
2017-08-25T17:18:17.198Z,49.80
2017-08-25T17:20:44.811Z,50.20
2017-08-25T17:23:12.433Z,50.20
2017-08-25T17:25:40.053Z,50.40
2017-08-25T17:28:07.692Z,50.70
2017-08-25T17:30:35.375Z,50.80
2017-08-25T17:33:02.981Z,51.20
2017-08-25T17:35:30.572Z,51.40
2017-08-25T17:37:58.200Z,51.80
2017-08-25T17:40:25.796Z,52.20
2017-08-25T17:42:53.422Z,52.30
2017-08-25T17:45:21.007Z,52.70
2017-08-25T17:47:48.863Z,52.80
2017-08-25T17:50:16.475Z,53.00
2017-08-25T17:52:44.158Z,53.20
2017-08-25T17:55:11.717Z,53.60
2017-08-25T17:57:39.309Z,53.70
2017-08-25T18:00:06.937Z,53.60
2017-08-25T18:02:34.564Z,53.90
2017-08-25T18:05:02.123Z,54.40
2017-08-25T18:07:29.717Z,54.70
2017-08-25T18:09:57.301Z,54.80
2017-08-25T18:12:24.898Z,55.10
2017-08-25T18:14:52.577Z,55.30
2017-08-25T18:17:20.212Z,55.40
2017-08-25T18:19:47.860Z,55.70
2017-08-25T18:22:15.501Z,56.10
2017-08-25T18:24:43.065Z,56.10
2017-08-25T18:27:10.752Z,56.30
2017-08-25T18:29:38.384Z,56.60
2017-08-25T18:32:05.971Z,57.10
2017-08-25T18:34:33.608Z,57.20
2017-08-25T18:37:01.975Z,57.20
2017-08-25T18:39:29.607Z,57.50
2017-08-25T18:41:57.177Z,57.80
2017-08-25T18:44:24.753Z,58.00
2017-08-25T18:46:52.381Z,58.10
2017-08-25T18:49:19.994Z,58.20
2017-08-25T18:51:48.498Z,58.50
2017-08-25T18:54:16.144Z,58.70
2017-08-25T18:56:43.803Z,58.80
2017-08-25T18:59:11.397Z,59.70
2017-08-25T19:01:39.029Z,59.40
2017-08-25T19:04:06.656Z,59.50
2017-08-25T19:06:34.263Z,59.90
2017-08-25T19:09:01.908Z,59.50
2017-08-25T19:11:30.510Z,59.70
2017-08-25T19:13:58.121Z,59.70
2017-08-25T19:16:25.710Z,60.00
2017-08-25T19:18:53.437Z,59.60
2017-08-25T19:21:21.034Z,59.50
2017-08-25T19:23:48.620Z,59.80
2017-08-25T19:26:16.243Z,59.80
2017-08-25T19:28:43.929Z,59.40
2017-08-25T19:31:11.549Z,59.20
2017-08-25T19:33:39.167Z,59.30
2017-08-25T19:36:06.763Z,59.40
2017-08-25T19:38:34.410Z,59.60
2017-08-25T19:41:02.062Z,59.70
2017-08-25T19:43:29.714Z,59.60
2017-08-25T19:45:57.376Z,59.80
2017-08-25T19:48:24.957Z,59.70
2017-08-25T19:50:52.571Z,59.50
2017-08-25T19:53:20.217Z,59.60
2017-08-25T19:55:47.836Z,60.10
2017-08-25T19:58:15.446Z,60.10
2017-08-25T20:00:43.100Z,61.00
2017-08-25T20:03:11.434Z,61.20
2017-08-25T20:05:39.048Z,61.30
2017-08-25T20:08:06.727Z,61.00
2017-08-25T20:10:34.333Z,60.90
2017-08-25T20:13:01.913Z,60.90
2017-08-25T20:15:29.509Z,61.00
2017-08-25T20:17:57.123Z,60.90
2017-08-25T20:20:25.183Z,60.90
2017-08-25T20:22:52.783Z,61.10
2017-08-25T20:25:20.363Z,61.40
2017-08-25T20:27:47.962Z,61.50
2017-08-25T20:30:15.570Z,61.50
2017-08-25T20:32:43.274Z,61.80
2017-08-25T20:35:11.601Z,62.00
2017-08-25T20:37:39.217Z,62.50
2017-08-25T20:40:06.852Z,62.60
2017-08-25T20:42:34.754Z,62.90
2017-08-25T20:45:02.412Z,63.20
2017-08-25T20:47:30.035Z,63.30
2017-08-25T20:49:57.681Z,63.40
2017-08-25T20:52:25.300Z,63.60
2017-08-25T20:54:52.943Z,63.90
2017-08-25T20:57:20.756Z,64.20
2017-08-25T20:59:48.366Z,64.10
2017-08-25T21:02:15.976Z,64.30
2017-08-25T21:04:43.623Z,64.60
2017-08-25T21:07:11.241Z,64.50
2017-08-25T21:09:38.838Z,64.60
2017-08-25T21:12:06.431Z,64.60
2017-08-25T21:14:34.375Z,64.60
2017-08-25T21:17:01.987Z,64.60
2017-08-25T21:19:29.618Z,64.90
2017-08-25T21:21:57.181Z,64.90
2017-08-25T21:24:24.833Z,64.80
2017-08-25T21:26:52.471Z,64.60
2017-08-25T21:29:20.062Z,64.60
2017-08-25T21:31:47.677Z,64.50
2017-08-25T21:34:15.274Z,64.60
2017-08-25T21:36:42.882Z,64.80
2017-08-25T21:39:10.472Z,65.70
2017-08-25T21:41:38.139Z,64.80
2017-08-25T21:44:05.761Z,65.20
2017-08-25T21:46:33.379Z,65.20
2017-08-25T21:49:01.018Z,65.10
2017-08-25T21:51:28.630Z,65.00
2017-08-25T21:53:56.237Z,65.10
2017-08-25T21:56:23.913Z,65.50
2017-08-25T21:58:51.479Z,65.20
2017-08-25T22:01:19.050Z,65.40
2017-08-25T22:03:46.656Z,65.40
2017-08-25T22:06:14.298Z,65.30
2017-08-25T22:08:41.959Z,65.20
2017-08-25T22:11:10.240Z,65.40
2017-08-25T22:13:37.901Z,65.40
2017-08-25T22:16:05.761Z,65.30
2017-08-25T22:18:33.417Z,65.50
2017-08-25T22:21:01.018Z,65.40
2017-08-25T22:23:28.645Z,65.50
2017-08-25T22:25:56.279Z,65.60
2017-08-25T22:28:23.865Z,65.70
2017-08-25T22:30:51.556Z,65.60
2017-08-25T22:33:19.170Z,65.30
2017-08-25T22:35:46.826Z,65.40
2017-08-25T22:38:14.494Z,65.30
2017-08-25T22:40:42.090Z,65.50
2017-08-25T22:43:09.721Z,65.60
2017-08-25T22:45:37.439Z,65.60
2017-08-25T22:48:05.180Z,65.70
2017-08-25T22:50:32.801Z,66.00
2017-08-25T22:53:00.658Z,65.90
2017-08-25T22:55:28.320Z,65.90
2017-08-25T22:57:56.394Z,66.20
2017-08-25T23:00:24.001Z,66.20
2017-08-25T23:02:51.589Z,66.50
2017-08-25T23:05:19.198Z,66.40
2017-08-25T23:07:46.818Z,66.70
2017-08-25T23:10:14.460Z,66.80
2017-08-25T23:12:42.095Z,66.80
2017-08-25T23:15:09.694Z,67.10
2017-08-25T23:17:37.351Z,67.10
2017-08-25T23:20:04.928Z,67.40
2017-08-25T23:22:32.538Z,67.60
2017-08-25T23:25:00.202Z,68.10
2017-08-25T23:27:27.841Z,68.20
2017-08-25T23:29:55.434Z,68.40
2017-08-25T23:32:23.072Z,68.30
2017-08-25T23:34:50.698Z,68.20
2017-08-25T23:37:18.342Z,68.30
2017-08-25T23:39:46.643Z,67.90
2017-08-25T23:42:14.268Z,67.90
2017-08-25T23:44:41.871Z,67.60
2017-08-25T23:47:09.500Z,67.50
2017-08-25T23:49:37.156Z,67.40
2017-08-25T23:52:05.028Z,67.60
2017-08-25T23:54:32.670Z,67.50
2017-08-25T23:57:00.254Z,67.00
2017-08-25T23:59:27.843Z,66.90
